Time;durP1;ratioP1;P1;durP2;ratioP2;P2;SDS_P1;SDS_P2;PMS_P1;PMS_P2;Temp;Humidity;BMP_temperature;BMP_pressure;BME280_temperature;BME280_humidity;BME280_pressure;Samples;Min_cycle;Max_cycle;Signal;HPM_P1;HPM_P2
2022/01/07 00:00:48;;;;;;;12.25;6.63;;;4.80;99.90;;;;;;5135659;27;20221;-63
2022/01/07 00:03:15;;;;;;;8.88;5.90;;;4.70;99.90;;;;;;5135195;27;20234;-63
2022/01/07 00:05:43;;;;;;;9.07;4.90;;;4.80;99.90;;;;;;5135239;27;20684;-63
2022/01/07 00:08:10;;;;;;;6.93;4.95;;;4.80;99.90;;;;;;5133556;27;20229;-63
2022/01/07 00:10:37;;;;;;;6.60;4.82;;;4.80;99.90;;;;;;5135610;27;20676;-63
2022/01/07 00:13:04;;;;;;;6.95;4.60;;;4.90;99.90;;;;;;5135622;27;20722;-63
2022/01/07 00:15:33;;;;;;;6.45;4.03;;;4.80;99.90;;;;;;5135244;27;20228;-63
2022/01/07 00:18:02;;;;;;;9.57;4.45;;;4.80;99.90;;;;;;5135771;27;20294;-63
2022/01/07 00:20:29;;;;;;;7.72;3.95;;;4.80;99.80;;;;;;5135176;27;20230;-63
2022/01/07 00:22:56;;;;;;;9.45;4.65;;;4.80;99.90;;;;;;5135303;27;20236;-63
2022/01/07 00:25:24;;;;;;;7.57;4.82;;;4.70;99.90;;;;;;5130259;27;20228;-63
2022/01/07 00:27:51;;;;;;;6.43;4.45;;;4.80;99.90;;;;;;5135322;27;20226;-63
2022/01/07 00:30:20;;;;;;;13.70;4.20;;;4.80;99.90;;;;;;5123035;27;20223;-64
2022/01/07 00:32:49;;;;;;;7.75;4.28;;;4.80;99.90;;;;;;5135495;27;20229;-64
2022/01/07 00:35:17;;;;;;;8.30;4.80;;;4.80;99.90;;;;;;5134875;27;20560;-63
2022/01/07 00:37:48;;;;;;;6.05;4.00;;;4.80;99.80;;;;;;5135240;27;20226;-63
2022/01/07 00:40:17;;;;;;;6.80;4.20;;;4.80;99.80;;;;;;5134809;27;20237;-63
2022/01/07 00:42:45;;;;;;;6.00;4.10;;;4.80;99.80;;;;;;5134524;27;20253;-63
2022/01/07 00:45:12;;;;;;;10.00;4.88;;;4.80;99.70;;;;;;5134657;27;20282;-64
2022/01/07 00:47:39;;;;;;;10.32;4.85;;;4.80;99.70;;;;;;5135065;27;20232;-63
2022/01/07 00:50:09;;;;;;;6.45;3.92;;;4.80;99.80;;;;;;5135119;27;20241;-63
2022/01/07 00:52:36;;;;;;;8.82;5.47;;;4.80;99.80;;;;;;5134471;27;20230;-63
2022/01/07 00:55:04;;;;;;;6.43;4.35;;;4.80;99.80;;;;;;5135155;27;20222;-64
2022/01/07 00:57:31;;;;;;;7.20;4.88;;;4.80;99.60;;;;;;5134407;27;20225;-63
2022/01/07 00:59:57;;;;;;;9.90;3.85;;;4.80;99.80;;;;;;5134950;27;20226;-63
2022/01/07 01:02:24;;;;;;;11.35;4.60;;;4.80;99.90;;;;;;5134389;27;20812;-64
2022/01/07 01:04:51;;;;;;;5.40;4.40;;;4.80;99.60;;;;;;5134626;27;20225;-63
2022/01/07 01:07:19;;;;;;;12.82;4.55;;;4.80;99.50;;;;;;5131267;27;20675;-63
2022/01/07 01:09:46;;;;;;;6.40;4.40;;;4.80;99.70;;;;;;5134515;27;20230;-63
2022/01/07 01:12:13;;;;;;;13.57;4.47;;;4.80;99.60;;;;;;5134109;27;20218;-63
2022/01/07 01:14:40;;;;;;;10.57;4.07;;;4.90;99.60;;;;;;5130792;27;20214;-63
2022/01/07 01:17:08;;;;;;;9.43;4.60;;;4.90;99.50;;;;;;5134470;27;20230;-63
2022/01/07 01:19:35;;;;;;;13.05;4.47;;;4.80;99.60;;;;;;5134114;27;20230;-63
2022/01/07 01:22:04;;;;;;;7.18;4.43;;;4.80;99.60;;;;;;5134396;27;20244;-63
2022/01/07 01:24:33;;;;;;;8.40;4.28;;;4.80;99.60;;;;;;5133929;27;20671;-64
2022/01/07 01:26:59;;;;;;;7.40;4.88;;;4.80;99.60;;;;;;5134448;27;20223;-64
2022/01/07 01:29:26;;;;;;;13.57;4.60;;;4.80;99.60;;;;;;5133824;27;20218;-64
2022/01/07 01:31:53;;;;;;;12.50;5.43;;;4.80;99.50;;;;;;5134229;27;20222;-64
2022/01/07 01:34:20;;;;;;;8.75;4.32;;;4.80;99.60;;;;;;5133851;27;20234;-64
2022/01/07 01:36:47;;;;;;;10.93;4.00;;;4.80;99.50;;;;;;5134295;27;20228;-63
2022/01/07 01:39:14;;;;;;;4.18;3.78;;;4.80;99.50;;;;;;5133766;27;20226;-64
2022/01/07 01:41:43;;;;;;;8.65;4.22;;;4.80;99.50;;;;;;5133789;27;20290;-64
2022/01/07 01:44:10;;;;;;;7.53;4.50;;;4.80;99.50;;;;;;5133705;27;20297;-64
2022/01/07 01:46:37;;;;;;;10.52;4.70;;;4.80;99.60;;;;;;5133408;27;20228;-64
2022/01/07 01:49:05;;;;;;;9.82;4.60;;;4.80;99.50;;;;;;5133992;27;20221;-64
2022/01/07 01:51:33;;;;;;;11.20;5.53;;;4.80;99.60;;;;;;5133431;27;20228;-64
2022/01/07 01:54:01;;;;;;;7.22;4.72;;;4.70;99.60;;;;;;5133928;27;20230;-64
2022/01/07 01:56:28;;;;;;;10.13;5.03;;;4.70;99.80;;;;;;5133103;27;20240;-63
2022/01/07 01:58:56;;;;;;;7.68;5.72;;;4.70;99.90;;;;;;5134001;27;20232;-63
2022/01/07 02:01:23;;;;;;;8.43;5.07;;;4.60;99.90;;;;;;5133197;27;20555;-64
2022/01/07 02:03:50;;;;;;;9.32;5.00;;;4.50;99.90;;;;;;5133628;27;20340;-64
2022/01/07 02:06:17;;;;;;;12.68;4.50;;;4.50;99.90;;;;;;5126407;27;20232;-64
2022/01/07 02:08:45;;;;;;;14.35;4.80;;;4.50;99.90;;;;;;5133633;27;20664;-64
2022/01/07 02:11:12;;;;;;;8.27;4.60;;;4.50;99.90;;;;;;5120108;27;20232;-64
2022/01/07 02:13:39;;;;;;;5.78;4.05;;;4.50;99.90;;;;;;5127815;27;20237;-62
2022/01/07 02:16:07;;;;;;;12.38;4.82;;;4.50;99.90;;;;;;5133626;27;20238;-63
2022/01/07 02:18:37;;;;;;;8.27;5.13;;;4.60;99.90;;;;;;5133283;27;20230;-63
2022/01/07 02:21:06;;;;;;;11.32;4.82;;;4.50;99.90;;;;;;5133638;27;20229;-63
2022/01/07 02:23:33;;;;;;;11.23;5.75;;;4.50;99.90;;;;;;5132946;27;20226;-63
2022/01/07 02:26:01;;;;;;;11.75;5.25;;;4.50;99.90;;;;;;5133516;27;20293;-63
2022/01/07 02:28:28;;;;;;;25.20;6.30;;;4.60;99.90;;;;;;5133178;27;20242;-63
2022/01/07 02:30:56;;;;;;;9.02;5.13;;;4.60;99.90;;;;;;5133494;27;20230;-63
2022/01/07 02:33:23;;;;;;;10.40;5.00;;;4.60;99.90;;;;;;5133177;27;20226;-63
2022/01/07 02:35:50;;;;;;;8.55;5.15;;;4.60;99.90;;;;;;5133289;27;20669;-63
2022/01/07 02:38:19;;;;;;;13.93;5.60;;;4.60;99.90;;;;;;5133278;27;20218;-63
2022/01/07 02:40:46;;;;;;;8.88;6.35;;;4.70;99.90;;;;;;5133246;27;20995;-62
2022/01/07 02:43:14;;;;;;;12.30;4.85;;;4.70;99.90;;;;;;5133063;27;20672;-63
2022/01/07 02:45:41;;;;;;;18.20;6.30;;;4.70;99.90;;;;;;5132794;27;20687;-63
2022/01/07 02:48:08;;;;;;;7.43;5.10;;;4.60;99.90;;;;;;5133180;27;20225;-63
2022/01/07 02:50:38;;;;;;;9.23;5.43;;;4.60;99.90;;;;;;5132860;27;20229;-63
2022/01/07 02:53:11;;;;;;;8.65;5.90;;;4.70;99.90;;;;;;5133067;27;20229;-63
2022/01/07 02:55:41;;;;;;;13.15;6.90;;;4.70;99.90;;;;;;5136830;27;20222;-62
2022/01/07 02:58:09;;;;;;;6.68;5.15;;;4.60;99.90;;;;;;5137352;27;20224;-63
2022/01/07 03:00:37;;;;;;;14.98;5.95;;;4.50;99.90;;;;;;5136789;27;20226;-63
2022/01/07 03:03:05;;;;;;;9.73;5.43;;;4.50;99.90;;;;;;5123852;27;20234;-64
2022/01/07 03:05:32;;;;;;;9.68;5.68;;;4.50;99.90;;;;;;5133269;27;20666;-64
2022/01/07 03:07:59;;;;;;;17.65;6.40;;;4.40;99.90;;;;;;5134013;27;20697;-64
2022/01/07 03:10:29;;;;;;;9.88;5.78;;;4.50;99.90;;;;;;5136596;27;20234;-64
2022/01/07 03:12:59;;;;;;;10.20;7.22;;;4.50;99.90;;;;;;5137291;27;20256;-63
2022/01/07 03:15:25;;;;;;;9.38;6.32;;;4.40;99.90;;;;;;5136451;27;20217;-63
2022/01/07 03:17:52;;;;;;;9.02;5.25;;;4.40;99.90;;;;;;5137051;27;20228;-64
2022/01/07 03:20:21;;;;;;;8.73;5.75;;;4.40;99.90;;;;;;5136795;27;20225;-65
2022/01/07 03:22:49;;;;;;;9.25;6.15;;;4.40;99.90;;;;;;5136379;27;20617;-64
2022/01/07 03:25:17;;;;;;;7.00;5.10;;;4.40;99.90;;;;;;5136823;27;20228;-64
2022/01/07 03:27:44;;;;;;;11.30;6.15;;;4.40;99.90;;;;;;5136271;27;20232;-63
2022/01/07 03:30:16;;;;;;;11.38;5.70;;;4.40;99.90;;;;;;5136619;27;20565;-64
2022/01/07 03:32:43;;;;;;;10.63;6.50;;;4.40;99.90;;;;;;5136471;27;20567;-63
2022/01/07 03:35:12;;;;;;;12.95;6.07;;;4.40;99.90;;;;;;5136824;27;20570;-64
2022/01/07 03:37:39;;;;;;;11.18;6.18;;;4.40;99.90;;;;;;5136038;27;20220;-64
2022/01/07 03:40:08;;;;;;;8.98;5.65;;;4.50;99.90;;;;;;5136409;27;20226;-63
2022/01/07 03:42:38;;;;;;;10.15;7.00;;;4.40;99.90;;;;;;5136097;27;20669;-63
2022/01/07 03:45:06;;;;;;;10.25;4.93;;;4.40;99.90;;;;;;5136352;27;20237;-64
2022/01/07 03:47:34;;;;;;;9.30;6.60;;;4.40;99.90;;;;;;5135837;27;20218;-64
2022/01/07 03:50:01;;;;;;;8.43;5.95;;;4.40;99.90;;;;;;5136122;27;20234;-64
2022/01/07 03:52:28;;;;;;;7.00;5.03;;;4.40;99.90;;;;;;5135865;27;20241;-64
2022/01/07 03:54:55;;;;;;;6.97;4.65;;;4.40;99.90;;;;;;5135756;27;20556;-64
2022/01/07 03:57:24;;;;;;;7.20;4.60;;;4.40;99.90;;;;;;5136231;27;20222;-64
2022/01/07 03:59:51;;;;;;;8.20;6.38;;;4.40;99.90;;;;;;5135558;27;20301;-64
2022/01/07 04:02:19;;;;;;;7.82;5.35;;;4.40;99.90;;;;;;5136133;27;20656;-64
2022/01/07 04:04:47;;;;;;;9.30;5.53;;;4.40;99.90;;;;;;5135327;27;20314;-64
2022/01/07 04:07:14;;;;;;;9.75;6.60;;;4.40;99.90;;;;;;5125489;27;20218;-64
2022/01/07 04:09:41;;;;;;;12.77;6.20;;;4.40;99.90;;;;;;5133966;27;20232;-64
2022/01/07 04:12:09;;;;;;;9.57;5.53;;;4.40;99.90;;;;;;5134660;27;20222;-64
2022/01/07 04:14:36;;;;;;;10.40;5.30;;;4.40;99.90;;;;;;5134818;27;20222;-64
2022/01/07 04:17:03;;;;;;;8.07;5.65;;;4.30;99.90;;;;;;5135327;27;20705;-64
2022/01/07 04:19:30;;;;;;;8.05;5.65;;;4.30;99.90;;;;;;5134648;27;20215;-64
2022/01/07 04:21:58;;;;;;;12.35;6.03;;;4.30;99.90;;;;;;5135099;27;20229;-63
2022/01/07 04:24:25;;;;;;;7.47;5.47;;;4.20;99.90;;;;;;5135183;27;20222;-64
2022/01/07 04:26:53;;;;;;;10.00;6.03;;;4.20;99.90;;;;;;5135149;27;20218;-64
2022/01/07 04:29:19;;;;;;;9.70;6.82;;;4.20;99.90;;;;;;5135616;27;20221;-64
2022/01/07 04:31:46;;;;;;;15.30;7.25;;;4.20;99.90;;;;;;5135265;27;20550;-64
2022/01/07 04:34:13;;;;;;;12.23;6.10;;;4.10;99.90;;;;;;5135732;27;20222;-64
2022/01/07 04:36:40;;;;;;;10.68;6.85;;;4.20;99.90;;;;;;5135092;27;20225;-64
2022/01/07 04:39:08;;;;;;;11.00;6.03;;;4.10;99.90;;;;;;5135576;27;20236;-64
2022/01/07 04:41:35;;;;;;;8.60;5.72;;;4.20;99.90;;;;;;5135069;27;20222;-64
2022/01/07 04:44:02;;;;;;;11.60;6.88;;;4.30;99.90;;;;;;5135165;27;20595;-65
2022/01/07 04:46:29;;;;;;;11.55;6.95;;;4.30;99.90;;;;;;5135450;27;20718;-63
2022/01/07 04:48:55;;;;;;;7.47;6.40;;;4.30;99.90;;;;;;5135087;27;20217;-64
2022/01/07 04:51:22;;;;;;;14.38;7.65;;;4.30;99.90;;;;;;5135302;27;20226;-64
2022/01/07 04:53:49;;;;;;;9.38;6.07;;;4.30;99.90;;;;;;5134695;27;20229;-64
2022/01/07 04:56:17;;;;;;;6.85;6.00;;;4.30;99.90;;;;;;5135173;27;20224;-63
2022/01/07 04:58:44;;;;;;;7.85;6.05;;;4.30;99.90;;;;;;5134816;27;20218;-63
2022/01/07 05:01:11;;;;;;;7.68;6.00;;;4.30;99.90;;;;;;5135035;27;20226;-63
2022/01/07 05:03:38;;;;;;;11.73;5.60;;;4.30;99.90;;;;;;5134313;27;20832;-63
2022/01/07 05:06:23;;;;;;;9.45;5.93;;;4.30;99.90;;;;;;5126956;27;20227;-63
2022/01/07 05:08:50;;;;;;;10.73;6.05;;;4.20;99.90;;;;;;5134636;27;20249;-63
2022/01/07 05:11:18;;;;;;;14.23;7.18;;;4.20;99.90;;;;;;5134985;27;20579;-63
2022/01/07 05:13:45;;;;;;;9.90;5.70;;;4.30;99.90;;;;;;5134316;27;20221;-63
2022/01/07 05:16:12;;;;;;;10.32;5.35;;;4.30;99.90;;;;;;5135068;27;20226;-63
2022/01/07 05:18:39;;;;;;;9.95;5.63;;;4.30;99.90;;;;;;5134295;27;20563;-63
2022/01/07 05:21:06;;;;;;;8.60;5.32;;;4.30;99.90;;;;;;5134620;27;20226;-64
2022/01/07 05:23:33;;;;;;;6.45;5.85;;;4.30;99.90;;;;;;5134632;27;20710;-64
2022/01/07 05:26:00;;;;;;;6.88;5.20;;;4.40;99.90;;;;;;5134209;27;20217;-64
2022/01/07 05:28:28;;;;;;;10.40;6.15;;;4.40;99.90;;;;;;5134749;27;20222;-64
2022/01/07 05:30:55;;;;;;;7.38;5.30;;;4.40;99.90;;;;;;5134116;27;20535;-64
2022/01/07 05:33:21;;;;;;;8.73;5.53;;;4.40;99.90;;;;;;5134507;27;20214;-63
2022/01/07 05:35:48;;;;;;;9.93;5.60;;;4.40;99.90;;;;;;5134112;27;20226;-64
2022/01/07 05:38:15;;;;;;;7.60;5.32;;;4.40;99.90;;;;;;5133749;27;20224;-64
2022/01/07 05:40:42;;;;;;;7.38;5.30;;;4.40;99.90;;;;;;5133167;27;20231;-64
2022/01/07 05:43:09;;;;;;;14.82;4.68;;;4.40;99.90;;;;;;5133396;27;20679;-64
2022/01/07 05:45:37;;;;;;;6.88;6.03;;;4.40;99.90;;;;;;5133517;27;20231;-64
2022/01/07 05:48:04;;;;;;;6.50;4.10;;;4.40;99.90;;;;;;5133186;27;20927;-64
2022/01/07 05:50:31;;;;;;;5.80;4.90;;;4.40;99.90;;;;;;5133338;27;20214;-64
2022/01/07 05:52:58;;;;;;;6.90;5.03;;;4.40;99.90;;;;;;5133342;27;20675;-64
2022/01/07 05:55:25;;;;;;;7.18;4.43;;;4.40;99.90;;;;;;5132598;27;20228;-63
2022/01/07 05:57:52;;;;;;;7.22;4.72;;;4.40;99.90;;;;;;5131853;27;20232;-64
2022/01/07 06:00:19;;;;;;;10.35;5.20;;;4.40;99.90;;;;;;5132168;27;20230;-63
2022/01/07 06:02:47;;;;;;;6.50;4.47;;;4.40;99.90;;;;;;5131404;27;20240;-63
2022/01/07 06:05:14;;;;;;;6.60;5.47;;;4.40;99.90;;;;;;5130871;27;20301;-63
2022/01/07 06:07:41;;;;;;;8.55;5.53;;;4.40;99.80;;;;;;5125273;27;20305;-64
2022/01/07 06:10:09;;;;;;;8.40;5.05;;;4.40;99.80;;;;;;5132648;27;20240;-64
2022/01/07 06:12:36;;;;;;;8.23;4.53;;;4.40;99.90;;;;;;5134055;27;20555;-64
2022/01/07 06:15:04;;;;;;;4.53;4.13;;;4.40;99.80;;;;;;5133327;27;20658;-64
2022/01/07 06:17:31;;;;;;;6.57;4.53;;;4.30;99.90;;;;;;5133962;27;20218;-64
2022/01/07 06:19:59;;;;;;;8.20;5.60;;;4.30;99.80;;;;;;5133228;27;20234;-64
2022/01/07 06:22:26;;;;;;;8.50;5.25;;;4.30;99.80;;;;;;5133593;27;20228;-63
2022/01/07 06:24:53;;;;;;;11.43;5.70;;;4.30;99.90;;;;;;5133333;27;20226;-64
2022/01/07 06:27:19;;;;;;;6.53;4.20;;;4.40;99.90;;;;;;5133747;27;20225;-64
2022/01/07 06:29:47;;;;;;;8.93;5.45;;;4.40;99.80;;;;;;5132336;27;20222;-64
2022/01/07 06:32:13;;;;;;;7.30;4.90;;;4.40;99.80;;;;;;5133755;27;20229;-64
2022/01/07 06:34:40;;;;;;;9.88;5.60;;;4.40;99.80;;;;;;5133667;27;20226;-64
2022/01/07 06:37:08;;;;;;;13.45;7.25;;;4.40;99.80;;;;;;5133148;27;20224;-64
2022/01/07 06:39:35;;;;;;;6.80;6.10;;;4.40;99.80;;;;;;5133518;27;20239;-62
2022/01/07 06:42:02;;;;;;;6.53;5.32;;;4.40;99.70;;;;;;5132938;27;20224;-62
2022/01/07 06:44:29;;;;;;;8.80;4.63;;;4.40;99.70;;;;;;5133204;27;20225;-62
2022/01/07 06:46:56;;;;;;;10.68;4.75;;;4.40;99.80;;;;;;5132894;27;20214;-63
2022/01/07 06:49:23;;;;;;;7.57;4.90;;;4.40;99.70;;;;;;5133521;27;20231;-62
2022/01/07 06:51:51;;;;;;;6.55;4.43;;;4.50;99.70;;;;;;5132863;27;20221;-63
2022/01/07 06:54:19;;;;;;;9.27;5.28;;;4.50;99.60;;;;;;5133505;27;20214;-63
2022/01/07 06:56:47;;;;;;;7.45;5.10;;;4.40;99.70;;;;;;5132919;27;20229;-63
2022/01/07 06:59:14;;;;;;;5.65;4.55;;;4.30;99.70;;;;;;5133343;27;20226;-63
2022/01/07 07:01:42;;;;;;;6.40;5.15;;;4.40;99.80;;;;;;5133234;27;20232;-63
2022/01/07 07:04:09;;;;;;;6.35;4.70;;;4.40;99.80;;;;;;5132766;27;20244;-63
2022/01/07 07:06:36;;;;;;;5.75;4.95;;;4.30;99.70;;;;;;5125200;27;20731;-63
2022/01/07 07:09:03;;;;;;;6.13;5.53;;;4.30;99.90;;;;;;5132941;27;20542;-63
2022/01/07 07:11:31;;;;;;;7.40;4.50;;;4.40;99.90;;;;;;5133274;27;20640;-64
2022/01/07 07:13:58;;;;;;;7.93;4.88;;;4.30;99.90;;;;;;5132645;27;20233;-63
2022/01/07 07:16:25;;;;;;;8.18;4.28;;;4.30;99.90;;;;;;5132530;27;20230;-63
2022/01/07 07:18:52;;;;;;;6.57;5.32;;;4.30;99.90;;;;;;5132561;27;20226;-63
2022/01/07 07:21:19;;;;;;;5.60;4.55;;;4.40;99.90;;;;;;5133071;27;20568;-63
2022/01/07 07:23:45;;;;;;;4.25;3.90;;;4.40;99.80;;;;;;5132903;27;20229;-63
2022/01/07 07:26:12;;;;;;;9.13;5.07;;;4.40;99.80;;;;;;5132750;27;20296;-63
2022/01/07 07:28:40;;;;;;;12.45;4.68;;;4.50;99.90;;;;;;5133198;27;20503;-63
2022/01/07 07:31:12;;;;;;;9.43;5.72;;;4.50;99.90;;;;;;5132473;27;20237;-63
2022/01/07 07:34:07;;;;;;;7.30;5.40;;;4.40;99.90;;;;;;5133027;27;20214;-63
2022/01/07 07:36:34;;;;;;;12.13;6.95;;;4.40;99.80;;;;;;5132884;27;20262;-63
2022/01/07 07:39:04;;;;;;;8.02;6.05;;;4.30;99.80;;;;;;5133046;27;20230;-63
2022/01/07 07:41:32;;;;;;;14.23;9.20;;;4.30;99.90;;;;;;5134215;27;20676;-63
2022/01/07 07:44:02;;;;;;;14.68;10.68;;;4.30;99.80;;;;;;5136448;27;20226;-63
2022/01/07 07:46:31;;;;;;;18.77;12.63;;;4.40;99.90;;;;;;5136400;27;20221;-63
2022/01/07 07:49:00;;;;;;;8.23;6.55;;;4.30;99.80;;;;;;5136475;27;20214;-63
2022/01/07 07:51:28;;;;;;;6.35;4.57;;;4.30;99.90;;;;;;5136108;27;20214;-63
2022/01/07 07:53:55;;;;;;;8.18;5.10;;;4.30;99.90;;;;;;5135167;27;20234;-63
2022/01/07 07:56:22;;;;;;;7.25;5.35;;;4.40;99.90;;;;;;5136616;27;20217;-63
2022/01/07 07:58:49;;;;;;;8.50;5.10;;;4.40;99.90;;;;;;5135814;27;20232;-63
2022/01/07 08:01:18;;;;;;;7.35;5.00;;;4.40;99.70;;;;;;5136126;27;20642;-63
2022/01/07 08:03:46;;;;;;;7.78;4.57;;;4.40;99.70;;;;;;5135677;27;20603;-64
2022/01/07 08:06:13;;;;;;;7.03;5.00;;;4.40;99.70;;;;;;5128086;27;20206;-64
2022/01/07 08:08:40;;;;;;;6.60;5.03;;;4.50;99.70;;;;;;5135650;27;20717;-63
2022/01/07 08:11:09;;;;;;;8.02;4.53;;;4.40;99.40;;;;;;5115584;27;20672;-64
2022/01/07 08:16:19;;;;;;;6.43;4.30;;;4.40;99.40;;;;;;5115209;27;20214;-64
2022/01/07 08:18:49;;;;;;;6.63;4.40;;;4.50;99.60;;;;;;5115060;27;20919;-63
2022/01/07 08:21:16;;;;;;;11.65;5.50;;;4.50;99.80;;;;;;5115576;27;20684;-63
2022/01/07 08:23:44;;;;;;;7.07;4.63;;;4.60;99.50;;;;;;5114740;27;20230;-64
2022/01/07 08:26:12;;;;;;;8.10;5.05;;;4.60;99.40;;;;;;5118863;27;20248;-63
2022/01/07 08:28:45;;;;;;;5.72;4.03;;;4.60;99.40;;;;;;5135576;27;20226;-64
2022/01/07 08:31:25;;;;;;;7.97;4.32;;;4.50;99.30;;;;;;5135667;27;20218;-64
2022/01/07 08:36:37;;;;;;;7.75;6.43;;;4.50;99.60;;;;;;5135392;27;20232;-64
2022/01/07 08:39:07;;;;;;;5.95;5.30;;;4.50;99.80;;;;;;5135520;27;20214;-64
2022/01/07 08:41:35;;;;;;;6.63;6.03;;;4.50;99.80;;;;;;5135480;27;20282;-63
2022/01/07 08:44:09;;;;;;;6.20;5.60;;;4.60;99.90;;;;;;5134895;27;20218;-64
2022/01/07 08:46:37;;;;;;;9.77;6.72;;;4.60;99.80;;;;;;5135273;27;20214;-64
2022/01/07 08:49:06;;;;;;;7.78;5.43;;;4.70;99.80;;;;;;5135157;27;20218;-64
2022/01/07 08:51:33;;;;;;;11.60;6.60;;;4.70;99.50;;;;;;5134907;27;20353;-63
2022/01/07 08:53:59;;;;;;;9.35;7.25;;;4.70;99.60;;;;;;5134588;27;20238;-63
2022/01/07 08:56:27;;;;;;;8.15;5.82;;;4.80;99.50;;;;;;5135352;27;20229;-63
2022/01/07 08:58:54;;;;;;;9.05;6.78;;;4.80;99.60;;;;;;5134709;27;20218;-62
2022/01/07 09:01:22;;;;;;;8.95;5.20;;;4.80;99.50;;;;;;5135028;27;20226;-63
2022/01/07 09:03:49;;;;;;;10.73;5.07;;;4.90;99.50;;;;;;5134522;27;20238;-64
2022/01/07 09:06:18;;;;;;;8.10;5.00;;;4.90;99.60;;;;;;5127045;27;20223;-63
2022/01/07 09:08:45;;;;;;;14.27;6.00;;;4.90;99.60;;;;;;5134514;27;20557;-64
2022/01/07 09:11:12;;;;;;;8.27;5.30;;;5.00;99.40;;;;;;5134891;27;20279;-63
2022/01/07 09:13:39;;;;;;;9.27;5.47;;;5.00;99.40;;;;;;5134822;27;20233;-63
2022/01/07 09:16:06;;;;;;;9.35;5.80;;;5.10;99.40;;;;;;5134560;27;20978;-62
2022/01/07 09:18:33;;;;;;;9.68;6.03;;;5.10;99.30;;;;;;5134839;27;20218;-63
2022/01/07 09:21:00;;;;;;;8.85;4.47;;;5.20;99.20;;;;;;5134156;27;20684;-63
2022/01/07 09:23:28;;;;;;;8.30;4.72;;;5.20;99.40;;;;;;5134720;27;20737;-63
2022/01/07 09:25:55;;;;;;;9.93;4.78;;;5.30;99.40;;;;;;5134031;27;20230;-62
2022/01/07 09:28:22;;;;;;;9.02;5.32;;;5.30;99.30;;;;;;5134567;27;20224;-63
2022/01/07 09:30:49;;;;;;;5.25;3.97;;;5.30;99.20;;;;;;5134109;27;20309;-63
2022/01/07 09:33:16;;;;;;;5.80;4.40;;;5.30;99.10;;;;;;5134396;27;20217;-63
2022/01/07 09:35:44;;;;;;;10.85;5.30;;;5.40;99.20;;;;;;5134394;27;20226;-63
2022/01/07 09:38:11;;;;;;;7.65;4.55;;;5.50;99.20;;;;;;5134366;27;21459;-63
2022/01/07 09:40:39;;;;;;;6.93;4.10;;;5.50;99.00;;;;;;5134337;27;20731;-63
2022/01/07 09:43:11;;;;;;;6.65;5.00;;;5.50;99.00;;;;;;5133864;27;20695;-63
2022/01/07 09:45:39;;;;;;;7.00;5.25;;;5.50;99.00;;;;;;5114142;27;20749;-63
2022/01/07 09:48:08;;;;;;;8.35;5.03;;;5.50;98.90;;;;;;5129007;27;20271;-63
2022/01/07 09:50:36;;;;;;;16.10;6.63;;;5.60;99.00;;;;;;5134132;27;20227;-63
2022/01/07 09:53:06;;;;;;;6.15;4.50;;;5.60;98.90;;;;;;5133670;27;20218;-63
2022/01/07 09:55:33;;;;;;;6.57;4.75;;;5.60;98.80;;;;;;5134114;27;20218;-64
2022/01/07 09:58:02;;;;;;;7.70;5.60;;;5.70;98.80;;;;;;5133584;27;20315;-63
2022/01/07 10:00:34;;;;;;;8.70;7.18;;;5.70;98.90;;;;;;5134020;27;20217;-63
2022/01/07 10:03:03;;;;;;;11.38;5.78;;;5.60;98.80;;;;;;5133104;27;20241;-63
2022/01/07 10:05:31;;;;;;;11.63;5.85;;;5.70;99.10;;;;;;5133553;27;20219;-63
2022/01/07 10:08:13;;;;;;;10.07;5.85;;;5.70;98.90;;;;;;5113579;27;20603;-64
2022/01/07 10:10:40;;;;;;;13.07;8.35;;;5.80;98.90;;;;;;5113469;27;20718;-63
2022/01/07 10:13:08;;;;;;;9.55;7.78;;;5.90;98.90;;;;;;5112814;27;20241;-63
2022/01/07 10:15:36;;;;;;;13.70;6.30;;;5.90;98.80;;;;;;5113339;27;20680;-63
2022/01/07 10:18:06;;;;;;;15.05;9.63;;;5.90;98.90;;;;;;5112814;27;20681;-64
2022/01/07 10:20:36;;;;;;;19.15;10.80;;;6.00;98.80;;;;;;5113097;27;20233;-63
2022/01/07 10:23:06;;;;;;;10.20;8.52;;;6.10;98.80;;;;;;5112750;27;20307;-63
2022/01/07 10:25:34;;;;;;;9.65;5.93;;;6.10;98.70;;;;;;5113146;27;20572;-64
2022/01/07 10:28:04;;;;;;;6.70;5.53;;;6.10;98.70;;;;;;5112698;27;20231;-64
2022/01/07 10:30:37;;;;;;;12.38;6.15;;;6.20;99.00;;;;;;5126258;27;20567;-64
2022/01/07 10:33:17;;;;;;;12.00;5.40;;;6.20;98.80;;;;;;5133246;27;20222;-63
2022/01/07 10:35:45;;;;;;;6.68;5.75;;;6.30;98.80;;;;;;5133571;27;20275;-64
2022/01/07 10:38:16;;;;;;;10.75;7.32;;;6.40;99.10;;;;;;5133095;27;20241;-64
2022/01/07 10:40:44;;;;;;;13.18;8.30;;;6.50;98.40;;;;;;5133368;27;20222;-64
2022/01/07 10:43:13;;;;;;;7.80;5.82;;;6.50;98.20;;;;;;5132828;27;20696;-64
2022/01/07 10:45:43;;;;;;;6.82;5.32;;;6.60;98.20;;;;;;5133284;27;20711;-64
2022/01/07 10:48:10;;;;;;;6.47;5.82;;;6.50;98.00;;;;;;5127757;27;20211;-63
2022/01/07 10:50:39;;;;;;;8.05;5.30;;;6.50;98.00;;;;;;5131792;27;20222;-63
2022/01/07 10:53:30;;;;;;;8.25;4.90;;;6.50;98.00;;;;;;5113235;27;20229;-63
2022/01/07 10:56:03;;;;;;;8.82;5.18;;;6.50;98.00;;;;;;5112010;27;20237;-62
2022/01/07 10:58:40;;;;;;;7.13;5.20;;;6.50;98.00;;;;;;5127029;27;20219;-63
2022/01/07 11:01:08;;;;;;;13.27;7.88;;;6.50;98.00;;;;;;5112732;27;20214;-62
2022/01/07 11:03:35;;;;;;;10.85;6.43;;;6.50;98.10;;;;;;5132710;27;20223;-62
2022/01/07 11:06:04;;;;;;;6.03;5.43;;;6.50;97.90;;;;;;5123963;27;20237;-63
2022/01/07 11:08:31;;;;;;;5.85;5.07;;;6.50;97.80;;;;;;5114299;27;20215;-63
2022/01/07 11:10:58;;;;;;;10.52;6.28;;;6.40;98.00;;;;;;5123333;27;20685;-63
2022/01/07 11:13:25;;;;;;;10.98;5.97;;;6.40;98.20;;;;;;5134426;27;20218;-63
2022/01/07 11:15:52;;;;;;;12.50;10.63;;;6.40;98.10;;;;;;5134417;27;20225;-63
2022/01/07 11:18:20;;;;;;;11.05;7.75;;;6.40;98.10;;;;;;5130803;27;20330;-63
2022/01/07 11:20:48;;;;;;;16.85;9.35;;;6.40;98.10;;;;;;5129981;27;20556;-63
2022/01/07 11:23:14;;;;;;;9.65;6.05;;;6.40;98.10;;;;;;5119639;27;20222;-63
2022/01/07 11:25:41;;;;;;;9.18;7.63;;;6.30;98.00;;;;;;5119918;27;20231;-64
2022/01/07 11:28:17;;;;;;;16.83;13.00;;;6.30;98.10;;;;;;5118994;27;20559;-63
2022/01/07 11:30:48;;;;;;;32.95;28.45;;;6.30;98.40;;;;;;5128827;27;20227;-63
2022/01/07 11:33:21;;;;;;;14.32;7.35;;;6.30;98.40;;;;;;5132277;27;20223;-63
2022/01/07 11:35:49;;;;;;;11.10;8.93;;;6.20;98.90;;;;;;5125452;27;20222;-63
2022/01/07 11:38:40;;;;;;;11.27;7.90;;;6.10;99.50;;;;;;5115506;27;20230;-63
2022/01/07 11:41:11;;;;;;;13.02;7.93;;;6.00;99.90;;;;;;5130959;27;20297;-63
2022/01/07 11:43:40;;;;;;;14.73;12.23;;;6.10;99.90;;;;;;5136238;27;20564;-63
2022/01/07 11:46:26;;;;;;;14.45;7.43;;;6.10;99.90;;;;;;5128056;27;20216;-64
2022/01/07 11:48:56;;;;;;;35.75;18.52;;;6.10;99.90;;;;;;5116348;27;20227;-63
2022/01/07 11:51:24;;;;;;;39.00;25.38;;;6.10;99.90;;;;;;5126511;27;20227;-63
2022/01/07 11:54:03;;;;;;;28.15;17.70;;;6.20;99.90;;;;;;5135460;27;20255;-63
2022/01/07 11:56:31;;;;;;;22.38;14.05;;;6.20;99.90;;;;;;5117518;27;20878;-63
2022/01/07 11:58:59;;;;;;;18.08;11.55;;;6.20;99.90;;;;;;5129487;27;20216;-63
2022/01/07 12:01:28;;;;;;;17.88;12.05;;;6.20;99.90;;;;;;5125399;27;20227;-63
2022/01/07 12:03:58;;;;;;;11.63;9.30;;;6.20;99.90;;;;;;5129069;27;20226;-63
2022/01/07 12:06:50;;;;;;;15.48;11.30;;;6.20;99.90;;;;;;5120408;27;20218;-63
2022/01/07 12:09:21;;;;;;;12.75;10.05;;;6.10;99.90;;;;;;5118318;27;20672;-63
2022/01/07 12:11:54;;;;;;;33.50;23.52;;;6.10;99.90;;;;;;5135805;27;20297;-64
2022/01/07 12:14:23;;;;;;;15.38;10.60;;;6.20;99.90;;;;;;5134950;27;20222;-63
2022/01/07 12:16:53;;;;;;;17.63;11.50;;;6.20;99.90;;;;;;5151001;27;20218;-64
2022/01/07 12:20:01;;;;;;;11.23;8.85;;;6.20;99.90;;;;;;5143955;27;20297;-63
2022/01/07 12:22:30;;;;;;;11.32;6.88;;;6.20;99.90;;;;;;5118541;27;20222;-64
2022/01/07 12:25:03;;;;;;;9.13;6.40;;;6.20;99.90;;;;;;5134895;27;20226;-62
2022/01/07 12:27:30;;;;;;;13.82;6.93;;;6.10;99.90;;;;;;5114874;27;20298;-64
2022/01/07 12:29:59;;;;;;;10.13;7.07;;;6.10;99.90;;;;;;5122617;27;20240;-64
2022/01/07 12:32:31;;;;;;;10.57;6.75;;;6.10;99.90;;;;;;5134311;27;20580;-64
2022/01/07 12:34:58;;;;;;;14.35;7.85;;;6.10;99.90;;;;;;5118150;27;20301;-64
2022/01/07 12:37:26;;;;;;;10.27;7.63;;;6.10;99.90;;;;;;5127639;27;20229;-64
2022/01/07 12:39:56;;;;;;;12.20;7.22;;;6.00;99.90;;;;;;5118368;27;20214;-64
2022/01/07 12:42:24;;;;;;;11.38;8.10;;;6.00;99.90;;;;;;5114533;27;20560;-64
2022/01/07 12:44:57;;;;;;;16.83;9.50;;;5.90;99.90;;;;;;5129092;27;20218;-64
2022/01/07 12:47:27;;;;;;;15.18;11.23;;;5.80;99.90;;;;;;5134447;27;20222;-64
2022/01/07 12:49:55;;;;;;;21.48;15.05;;;5.90;99.90;;;;;;5124502;27;20222;-64
2022/01/07 12:52:25;;;;;;;16.65;12.05;;;5.90;99.90;;;;;;5127610;27;20240;-64
2022/01/07 12:54:59;;;;;;;17.60;11.38;;;5.90;99.90;;;;;;5129429;27;20217;-64
2022/01/07 12:57:32;;;;;;;14.07;11.27;;;6.00;99.90;;;;;;5134709;27;20667;-64
2022/01/07 13:00:12;;;;;;;14.20;10.45;;;6.00;99.90;;;;;;5134023;27;20230;-64
2022/01/07 13:02:41;;;;;;;14.48;10.07;;;6.00;99.90;;;;;;5133936;27;20236;-64
2022/01/07 13:05:17;;;;;;;14.10;9.60;;;6.00;99.90;;;;;;5132888;27;20874;-64